sensor_id;sensor_type;location;lat;lon;timestamp;pressure;altitude;pressure_sealevel;temperature;humidity
44734;BME280;30462;52.446;-1.930;2023-01-28T00:00:18;101815.3984;;;;
44734;BME280;30462;52.446;-1.930;2023-01-28T00:01:18;101815.7617;;;;
44734;BME280;30462;52.446;-1.930;2023-01-28T00:02:18;101816.9844;;;;
44734;BME280;30462;52.446;-1.930;2023-01-28T00:03:18;101817.9648;;;;
44734;BME280;30462;52.446;-1.930;2023-01-28T00:04:18;101819.4219;;;;
44734;BME280;30462;52.446;-1.930;2023-01-28T00:05:18;101817.8008;;;;
44734;BME280;30462;52.446;-1.930;2023-01-28T00:06:18;101819.4688;;;;
44734;BME280;30462;52.446;-1.930;2023-01-28T00:07:18;101819.0195;;;;
44734;BME280;30462;52.446;-1.930;2023-01-28T00:08:17;101816.5352;;;;
44734;BME280;30462;52.446;-1.930;2023-01-28T00:09:17;101814.7109;;;;
44734;BME280;30462;52.446;-1.930;2023-01-28T00:10:18;101817.0234;;;;
44734;BME280;30462;52.446;-1.930;2023-01-28T00:11:18;101814.7461;;;;
44734;BME280;30462;52.446;-1.930;2023-01-28T00:12:18;101808.5234;;;;
44734;BME280;30462;52.446;-1.930;2023-01-28T00:13:18;101807.1367;;;;
44734;BME280;30462;52.446;-1.930;2023-01-28T00:14:18;101804.8633;;;;
44734;BME280;30462;52.446;-1.930;2023-01-28T00:15:18;101803.4805;;;;
44734;BME280;30462;52.446;-1.930;2023-01-28T00:16:18;101802.3047;;;;
44734;BME280;30462;52.446;-1.930;2023-01-28T00:17:18;101802.3438;;;;
44734;BME280;30462;52.446;-1.930;2023-01-28T00:18:18;101803.9297;;;;
44734;BME280;30462;52.446;-1.930;2023-01-28T00:19:18;101800.7578;;;;
44734;BME280;30462;52.446;-1.930;2023-01-28T00:20:18;101804.0938;;;;
44734;BME280;30462;52.446;-1.930;2023-01-28T00:21:18;101803.2813;;;;
44734;BME280;30462;52.446;-1.930;2023-01-28T00:22:18;101800.2266;;;;
44734;BME280;30462;52.446;-1.930;2023-01-28T00:23:18;101799.8203;;;;
44734;BME280;30462;52.446;-1.930;2023-01-28T00:24:18;101799.7852;;;;
44734;BME280;30462;52.446;-1.930;2023-01-28T00:25:17;101796.4063;;;;
44734;BME280;30462;52.446;-1.930;2023-01-28T00:26:18;101793.8828;;;;
44734;BME280;30462;52.446;-1.930;2023-01-28T00:27:18;101798.0703;;;;
44734;BME280;30462;52.446;-1.930;2023-01-28T00:28:18;101789.9805;;;;
44734;BME280;30462;52.446;-1.930;2023-01-28T00:29:18;101793.1133;;;;
44734;BME280;30462;52.446;-1.930;2023-01-28T00:30:18;101791.4844;;;;
44734;BME280;30462;52.446;-1.930;2023-01-28T00:31:18;101791.8945;;;;
44734;BME280;30462;52.446;-1.930;2023-01-28T00:32:18;101788.2695;;;;
44734;BME280;30462;52.446;-1.930;2023-01-28T00:33:18;101790.7539;;;;
44734;BME280;30462;52.446;-1.930;2023-01-28T00:34:18;101789.6523;;;;
44734;BME280;30462;52.446;-1.930;2023-01-28T00:35:18;101790.9531;;;;
44734;BME280;30462;52.446;-1.930;2023-01-28T00:36:19;101789.1641;;;;
44734;BME280;30462;52.446;-1.930;2023-01-28T00:37:17;101789.2461;;;;
44734;BME280;30462;52.446;-1.930;2023-01-28T00:38:18;101791.0352;;;;
44734;BME280;30462;52.446;-1.930;2023-01-28T00:39:17;101792.2188;;;;
44734;BME280;30462;52.446;-1.930;2023-01-28T00:40:18;101788.2305;;;;
44734;BME280;30462;52.446;-1.930;2023-01-28T00:41:19;101786.4805;;;;
44734;BME280;30462;52.446;-1.930;2023-01-28T00:42:18;101783.4336;;;;
44734;BME280;30462;52.446;-1.930;2023-01-28T00:43:18;101784.5313;;;;
44734;BME280;30462;52.446;-1.930;2023-01-28T00:44:19;101778.6719;;;;
44734;BME280;30462;52.446;-1.930;2023-01-28T00:45:18;101776.2344;;;;
44734;BME280;30462;52.446;-1.930;2023-01-28T00:46:18;101779.8086;;;;
44734;BME280;30462;52.446;-1.930;2023-01-28T00:47:17;101778.7148;;;;
44734;BME280;30462;52.446;-1.930;2023-01-28T00:48:18;101776.2383;;;;
44734;BME280;30462;52.446;-1.930;2023-01-28T00:49:18;101773.918;;;;
44734;BME280;30462;52.446;-1.930;2023-01-28T00:50:18;101774.9688;;;;
44734;BME280;30462;52.446;-1.930;2023-01-28T00:51:18;101774.4414;;;;
44734;BME280;30462;52.446;-1.930;2023-01-28T00:52:18;101772.7773;;;;
44734;BME280;30462;52.446;-1.930;2023-01-28T00:53:18;101769.3633;;;;
44734;BME280;30462;52.446;-1.930;2023-01-28T00:54:18;101774.2422;;;;
44734;BME280;30462;52.446;-1.930;2023-01-28T00:55:18;101776.5547;;;;
44734;BME280;30462;52.446;-1.930;2023-01-28T00:56:18;101776.5508;;;;
44734;BME280;30462;52.446;-1.930;2023-01-28T00:57:18;101774.4766;;;;
44734;BME280;30462;52.446;-1.930;2023-01-28T00:58:18;101778.9063;;;;
44734;BME280;30462;52.446;-1.930;2023-01-28T00:59:18;101786.3477;;;;
44734;BME280;30462;52.446;-1.930;2023-01-28T01:00:18;101780.5391;;;;
44734;BME280;30462;52.446;-1.930;2023-01-28T01:01:19;101776.0273;;;;
44734;BME280;30462;52.446;-1.930;2023-01-28T01:02:18;101777.9375;;;;
44734;BME280;30462;52.446;-1.930;2023-01-28T01:03:18;101777.9336;;;;
44734;BME280;30462;52.446;-1.930;2023-01-28T01:04:18;101777.1641;;;;
44734;BME280;30462;52.446;-1.930;2023-01-28T01:05:17;101776.1875;;;;
44734;BME280;30462;52.446;-1.930;2023-01-28T01:06:17;101775.6133;;;;
44734;BME280;30462;52.446;-1.930;2023-01-28T01:07:19;101777.6484;;;;
44734;BME280;30462;52.446;-1.930;2023-01-28T01:08:18;101778.625;;;;
44734;BME280;30462;52.446;-1.930;2023-01-28T01:09:18;101776.2656;;;;
44734;BME280;30462;52.446;-1.930;2023-01-28T01:10:18;101776.957;;;;
44734;BME280;30462;52.446;-1.930;2023-01-28T01:11:18;101774.8047;;;;
44734;BME280;30462;52.446;-1.930;2023-01-28T01:12:18;101774.4375;;;;
44734;BME280;30462;52.446;-1.930;2023-01-28T01:13:18;101771.6719;;;;
44734;BME280;30462;52.446;-1.930;2023-01-28T01:14:18;101772.0859;;;;
44734;BME280;30462;52.446;-1.930;2023-01-28T01:15:18;101770.25;;;;
44734;BME280;30462;52.446;-1.930;2023-01-28T01:16:18;101769.0703;;;;
44734;BME280;30462;52.446;-1.930;2023-01-28T01:17:18;101770.8984;;;;
44734;BME280;30462;52.446;-1.930;2023-01-28T01:18:18;101767.5234;;;;
44734;BME280;30462;52.446;-1.930;2023-01-28T01:19:18;101770.6563;;;;
44734;BME280;30462;52.446;-1.930;2023-01-28T01:20:19;101767.9336;;;;
44734;BME280;30462;52.446;-1.930;2023-01-28T01:21:19;101767.7305;;;;
44734;BME280;30462;52.446;-1.930;2023-01-28T01:22:18;101770.8984;;;;
44734;BME280;30462;52.446;-1.930;2023-01-28T01:23:18;101772.0391;;;;
44734;BME280;30462;52.446;-1.930;2023-01-28T01:24:17;101768.9102;;;;
44734;BME280;30462;52.446;-1.930;2023-01-28T01:25:18;101772.1602;;;;
44734;BME280;30462;52.446;-1.930;2023-01-28T01:26:18;101771.5938;;;;
44734;BME280;30462;52.446;-1.930;2023-01-28T01:27:18;101772;;;;
44734;BME280;30462;52.446;-1.930;2023-01-28T01:28:18;101776.1406;;;;
44734;BME280;30462;52.446;-1.930;2023-01-28T01:29:17;101778.2148;;;;
44734;BME280;30462;52.446;-1.930;2023-01-28T01:30:18;101776.0977;;;;
44734;BME280;30462;52.446;-1.930;2023-01-28T01:31:19;101769.6719;;;;
44734;BME280;30462;52.446;-1.930;2023-01-28T01:32:18;101773.2148;;;;
44734;BME280;30462;52.446;-1.930;2023-01-28T01:33:18;101772.9648;;;;
44734;BME280;30462;52.446;-1.930;2023-01-28T01:34:18;101773.375;;;;
44734;BME280;30462;52.446;-1.930;2023-01-28T01:35:18;101771.7109;;;;
44734;BME280;30462;52.446;-1.930;2023-01-28T01:36:18;101775.8516;;;;
44734;BME280;30462;52.446;-1.930;2023-01-28T01:37:17;101777.9609;;;;
44734;BME280;30462;52.446;-1.930;2023-01-28T01:38:18;101777.1953;;;;
44734;BME280;30462;52.446;-1.930;2023-01-28T01:39:18;101777.4336;;;;
44734;BME280;30462;52.446;-1.930;2023-01-28T01:40:17;101776.5;;;;
44734;BME280;30462;52.446;-1.930;2023-01-28T01:41:22;101773.1328;;;;
44734;BME280;30462;52.446;-1.930;2023-01-28T01:42:18;101771.8281;;;;
44734;BME280;30462;52.446;-1.930;2023-01-28T01:43:19;101772.7227;;;;
44734;BME280;30462;52.446;-1.930;2023-01-28T01:45:18;101777.0742;;;;
44734;BME280;30462;52.446;-1.930;2023-01-28T01:46:19;101777.3984;;;;
44734;BME280;30462;52.446;-1.930;2023-01-28T01:47:18;101780.6914;;;;
44734;BME280;30462;52.446;-1.930;2023-01-28T01:48:19;101779.2656;;;;
44734;BME280;30462;52.446;-1.930;2023-01-28T01:49:18;101776.2578;;;;
44734;BME280;30462;52.446;-1.930;2023-01-28T01:50:19;101777.0273;;;;
44734;BME280;30462;52.446;-1.930;2023-01-28T01:51:18;101779.0234;;;;
44734;BME280;30462;52.446;-1.930;2023-01-28T01:52:19;101778.4922;;;;
44734;BME280;30462;52.446;-1.930;2023-01-28T01:53:20;101779.4727;;;;
44734;BME280;30462;52.446;-1.930;2023-01-28T01:54:18;101778.6992;;;;
44734;BME280;30462;52.446;-1.930;2023-01-28T01:55:18;101775.1641;;;;
44734;BME280;30462;52.446;-1.930;2023-01-28T01:56:19;101774.6367;;;;
44734;BME280;30462;52.446;-1.930;2023-01-28T01:57:19;101776.0117;;;;
44734;BME280;30462;52.446;-1.930;2023-01-28T01:58:18;101774.6719;;;;
44734;BME280;30462;52.446;-1.930;2023-01-28T01:59:19;101778.207;;;;
44734;BME280;30462;52.446;-1.930;2023-01-28T02:00:18;101780.2031;;;;
44734;BME280;30462;52.446;-1.930;2023-01-28T02:01:18;101780.7734;;;;
44734;BME280;30462;52.446;-1.930;2023-01-28T02:02:18;101777.3984;;;;
44734;BME280;30462;52.446;-1.930;2023-01-28T02:03:18;101778.2891;;;;
44734;BME280;30462;52.446;-1.930;2023-01-28T02:04:20;101777.3984;;;;
44734;BME280;30462;52.446;-1.930;2023-01-28T02:05:19;101776.8281;;;;
44734;BME280;30462;52.446;-1.930;2023-01-28T02:06:18;101780.168;;;;
44734;BME280;30462;52.446;-1.930;2023-01-28T02:07:18;101777.9727;;;;
44734;BME280;30462;52.446;-1.930;2023-01-28T02:08:18;101774.4766;;;;
44734;BME280;30462;52.446;-1.930;2023-01-28T02:09:21;101773.0977;;;;
44734;BME280;30462;52.446;-1.930;2023-01-28T02:10:18;101774.8398;;;;
44734;BME280;30462;52.446;-1.930;2023-01-28T02:11:18;101777.1641;;;;
44734;BME280;30462;52.446;-1.930;2023-01-28T02:12:20;101775.0078;;;;
44734;BME280;30462;52.446;-1.930;2023-01-28T02:13:18;101776.3047;;;;
44734;BME280;30462;52.446;-1.930;2023-01-28T02:14:18;101778.2188;;;;
44734;BME280;30462;52.446;-1.930;2023-01-28T02:15:19;101775.8633;;;;
44734;BME280;30462;52.446;-1.930;2023-01-28T02:16:18;101781.8359;;;;
44734;BME280;30462;52.446;-1.930;2023-01-28T02:17:18;101778.0156;;;;
44734;BME280;30462;52.446;-1.930;2023-01-28T02:18:18;101780.5391;;;;
44734;BME280;30462;52.446;-1.930;2023-01-28T02:19:18;101779.3164;;;;
44734;BME280;30462;52.446;-1.930;2023-01-28T02:20:18;101779.8438;;;;
44734;BME280;30462;52.446;-1.930;2023-01-28T02:24:24;101772.6445;;;;
44734;BME280;30462;52.446;-1.930;2023-01-28T02:27:20;101767.6406;;;;
44734;BME280;30462;52.446;-1.930;2023-01-28T02:29:19;101774.3906;;;;
44734;BME280;30462;52.446;-1.930;2023-01-28T02:30:22;101776.707;;;;
44734;BME280;30462;52.446;-1.930;2023-01-28T02:31:20;101779.1406;;;;
44734;BME280;30462;52.446;-1.930;2023-01-28T02:32:22;101783.9766;;;;
44734;BME280;30462;52.446;-1.930;2023-01-28T02:33:21;101778.2891;;;;
44734;BME280;30462;52.446;-1.930;2023-01-28T02:34:19;101782.5117;;;;
44734;BME280;30462;52.446;-1.930;2023-01-28T02:35:20;101783.4883;;;;
44734;BME280;30462;52.446;-1.930;2023-01-28T02:36:25;101776.8984;;;;
44734;BME280;30462;52.446;-1.930;2023-01-28T02:37:19;101778.5156;;;;
44734;BME280;30462;52.446;-1.930;2023-01-28T02:38:19;101775.1484;;;;
44734;BME280;30462;52.446;-1.930;2023-01-28T02:39:19;101777.7539;;;;
44734;BME280;30462;52.446;-1.930;2023-01-28T02:40:19;101773.4844;;;;
44734;BME280;30462;52.446;-1.930;2023-01-28T02:41:20;101774.5391;;;;
44734;BME280;30462;52.446;-1.930;2023-01-28T02:42:20;101775.8867;;;;
44734;BME280;30462;52.446;-1.930;2023-01-28T02:43:18;101774.625;;;;
44734;BME280;30462;52.446;-1.930;2023-01-28T02:44:18;101776.3281;;;;
44734;BME280;30462;52.446;-1.930;2023-01-28T02:45:21;101776.4922;;;;
44734;BME280;30462;52.446;-1.930;2023-01-28T02:46:21;101779.9102;;;;
44734;BME280;30462;52.446;-1.930;2023-01-28T02:47:18;101779.0586;;;;
44734;BME280;30462;52.446;-1.930;2023-01-28T02:48:18;101777.5156;;;;
44734;BME280;30462;52.446;-1.930;2023-01-28T02:49:18;101773.6953;;;;
44734;BME280;30462;52.446;-1.930;2023-01-28T02:50:18;101766.7813;;;;
44734;BME280;30462;52.446;-1.930;2023-01-28T02:51:25;101757.9219;;;;
44734;BME280;30462;52.446;-1.930;2023-01-28T02:52:23;101756.332;;;;
44734;BME280;30462;52.446;-1.930;2023-01-28T02:53:23;101753.082;;;;
44734;BME280;30462;52.446;-1.930;2023-01-28T02:54:20;101750.9766;;;;
44734;BME280;30462;52.446;-1.930;2023-01-28T02:55:20;101752.5586;;;;
44734;BME280;30462;52.446;-1.930;2023-01-28T02:56:19;101752.7227;;;;
44734;BME280;30462;52.446;-1.930;2023-01-28T02:57:22;101752.2344;;;;
44734;BME280;30462;52.446;-1.930;2023-01-28T02:58:23;101750.6484;;;;
44734;BME280;30462;52.446;-1.930;2023-01-28T02:59:25;101750.6484;;;;
44734;BME280;30462;52.446;-1.930;2023-01-28T03:00:20;101746.2969;;;;
44734;BME280;30462;52.446;-1.930;2023-01-28T03:01:22;101747.4805;;;;
44734;BME280;30462;52.446;-1.930;2023-01-28T03:02:19;101747.9648;;;;
44734;BME280;30462;52.446;-1.930;2023-01-28T03:03:21;101741.668;;;;
44734;BME280;30462;52.446;-1.930;2023-01-28T03:04:19;101740.8906;;;;
44734;BME280;30462;52.446;-1.930;2023-01-28T03:05:19;101737.3984;;;;
44734;BME280;30462;52.446;-1.930;2023-01-28T03:06:19;101742.6836;;;;
44734;BME280;30462;52.446;-1.930;2023-01-28T03:07:18;101741.3008;;;;
44734;BME280;30462;52.446;-1.930;2023-01-28T03:08:17;101742.9258;;;;
44734;BME280;30462;52.446;-1.930;2023-01-28T03:09:17;101745.4375;;;;
44734;BME280;30462;52.446;-1.930;2023-01-28T03:10:19;101747.0273;;;;
44734;BME280;30462;52.446;-1.930;2023-01-28T03:11:18;101747.3594;;;;
44734;BME280;30462;52.446;-1.930;2023-01-28T03:12:22;101747.6016;;;;
44734;BME280;30462;52.446;-1.930;2023-01-28T03:13:18;101746.0156;;;;
44734;BME280;30462;52.446;-1.930;2023-01-28T03:14:19;101742.6406;;;;
44734;BME280;30462;52.446;-1.930;2023-01-28T03:15:22;101743.2539;;;;
44734;BME280;30462;52.446;-1.930;2023-01-28T03:16:18;101741.9453;;;;
44734;BME280;30462;52.446;-1.930;2023-01-28T03:17:21;101740.5703;;;;
44734;BME280;30462;52.446;-1.930;2023-01-28T03:18:21;101740.8477;;;;
44734;BME280;30462;52.446;-1.930;2023-01-28T03:19:18;101740.5664;;;;
44734;BME280;30462;52.446;-1.930;2023-01-28T03:20:18;101743.4531;;;;
44734;BME280;30462;52.446;-1.930;2023-01-28T03:21:21;101745.1211;;;;
44734;BME280;30462;52.446;-1.930;2023-01-28T03:22:18;101746.2969;;;;
44734;BME280;30462;52.446;-1.930;2023-01-28T03:23:19;101746.0547;;;;
44734;BME280;30462;52.446;-1.930;2023-01-28T03:24:20;101747.6367;;;;
44734;BME280;30462;52.446;-1.930;2023-01-28T03:25:18;101743.2969;;;;
44734;BME280;30462;52.446;-1.930;2023-01-28T03:26:18;101742.0352;;;;
44734;BME280;30462;52.446;-1.930;2023-01-28T03:27:21;101745.4453;;;;
44734;BME280;30462;52.446;-1.930;2023-01-28T03:28:18;101744.6758;;;;
44734;BME280;30462;52.446;-1.930;2023-01-28T03:29:18;101745.9766;;;;
44734;BME280;30462;52.446;-1.930;2023-01-28T03:30:21;101740.8164;;;;
44734;BME280;30462;52.446;-1.930;2023-01-28T03:31:18;101738.543;;;;
44734;BME280;30462;52.446;-1.930;2023-01-28T03:32:18;101736.6328;;;;
44734;BME280;30462;52.446;-1.930;2023-01-28T03:33:18;101736.7148;;;;
44734;BME280;30462;52.446;-1.930;2023-01-28T03:34:18;101739.0313;;;;
44734;BME280;30462;52.446;-1.930;2023-01-28T03:35:18;101740.6563;;;;
44734;BME280;30462;52.446;-1.930;2023-01-28T03:36:18;101738.457;;;;
44734;BME280;30462;52.446;-1.930;2023-01-28T03:37:18;101736.918;;;;
44734;BME280;30462;52.446;-1.930;2023-01-28T03:38:19;101738.9063;;;;
44734;BME280;30462;52.446;-1.930;2023-01-28T03:39:19;101738.0078;;;;
44734;BME280;30462;52.446;-1.930;2023-01-28T03:40:18;101735.6133;;;;
44734;BME280;30462;52.446;-1.930;2023-01-28T03:41:19;101736.75;;;;
44734;BME280;30462;52.446;-1.930;2023-01-28T03:42:18;101733.0117;;;;
44734;BME280;30462;52.446;-1.930;2023-01-28T03:43:18;101727.082;;;;
44734;BME280;30462;52.446;-1.930;2023-01-28T03:44:18;101727.8906;;;;
44734;BME280;30462;52.446;-1.930;2023-01-28T03:45:18;101734.1133;;;;
44734;BME280;30462;52.446;-1.930;2023-01-28T03:46:18;101735.7773;;;;
44734;BME280;30462;52.446;-1.930;2023-01-28T03:47:18;101738.5;;;;
44734;BME280;30462;52.446;-1.930;2023-01-28T03:48:18;101737.7266;;;;
44734;BME280;30462;52.446;-1.930;2023-01-28T03:49:18;101742.2422;;;;
44734;BME280;30462;52.446;-1.930;2023-01-28T03:50:18;101739.5586;;;;
44734;BME280;30462;52.446;-1.930;2023-01-28T03:51:18;101739.4023;;;;
44734;BME280;30462;52.446;-1.930;2023-01-28T03:52:18;101737.6094;;;;
44734;BME280;30462;52.446;-1.930;2023-01-28T03:53:18;101742.4453;;;;
44734;BME280;30462;52.446;-1.930;2023-01-28T03:54:18;101744.6406;;;;
44734;BME280;30462;52.446;-1.930;2023-01-28T03:55:18;101743.1797;;;;
44734;BME280;30462;52.446;-1.930;2023-01-28T03:56:18;101746.7148;;;;
44734;BME280;30462;52.446;-1.930;2023-01-28T03:57:19;101748.1758;;;;
44734;BME280;30462;52.446;-1.930;2023-01-28T03:58:19;101746.918;;;;
44734;BME280;30462;52.446;-1.930;2023-01-28T03:59:18;101752.043;;;;
44734;BME280;30462;52.446;-1.930;2023-01-28T04:00:18;101751.5508;;;;
44734;BME280;30462;52.446;-1.930;2023-01-28T04:01:18;101753.5039;;;;
44734;BME280;30462;52.446;-1.930;2023-01-28T04:02:18;101752.7734;;;;
44734;BME280;30462;52.446;-1.930;2023-01-28T04:03:19;101753.0586;;;;
44734;BME280;30462;52.446;-1.930;2023-01-28T04:04:18;101753.3789;;;;
44734;BME280;30462;52.446;-1.930;2023-01-28T04:05:18;101757;;;;
44734;BME280;30462;52.446;-1.930;2023-01-28T04:06:18;101757.3242;;;;
44734;BME280;30462;52.446;-1.930;2023-01-28T04:07:18;101756.6328;;;;
44734;BME280;30462;52.446;-1.930;2023-01-28T04:08:18;101750.4492;;;;
44734;BME280;30462;52.446;-1.930;2023-01-28T04:09:18;101748.9844;;;;
44734;BME280;30462;52.446;-1.930;2023-01-28T04:10:17;101748.2539;;;;
44734;BME280;30462;52.446;-1.930;2023-01-28T04:11:18;101741.875;;;;
44734;BME280;30462;52.446;-1.930;2023-01-28T04:12:18;101745.207;;;;
44734;BME280;30462;52.446;-1.930;2023-01-28T04:13:18;101738.5;;;;
44734;BME280;30462;52.446;-1.930;2023-01-28T04:14:18;101738.4609;;;;
44734;BME280;30462;52.446;-1.930;2023-01-28T04:15:18;101736.1836;;;;
44734;BME280;30462;52.446;-1.930;2023-01-28T04:16:18;101738.1289;;;;
44734;BME280;30462;52.446;-1.930;2023-01-28T04:17:17;101740.4883;;;;
44734;BME280;30462;52.446;-1.930;2023-01-28T04:18:18;101741.793;;;;
44734;BME280;30462;52.446;-1.930;2023-01-28T04:19:18;101745.043;;;;
44734;BME280;30462;52.446;-1.930;2023-01-28T04:20:18;101748.5781;;;;
44734;BME280;30462;52.446;-1.930;2023-01-28T04:21:18;101756.1367;;;;
44734;BME280;30462;52.446;-1.930;2023-01-28T04:22:18;101756.0195;;;;
44734;BME280;30462;52.446;-1.930;2023-01-28T04:23:17;101756.3008;;;;
44734;BME280;30462;52.446;-1.930;2023-01-28T04:24:18;101752.1953;;;;
44734;BME280;30462;52.446;-1.930;2023-01-28T04:25:18;101751.5508;;;;
44734;BME280;30462;52.446;-1.930;2023-01-28T04:26:18;101756.5898;;;;
44734;BME280;30462;52.446;-1.930;2023-01-28T04:27:18;101756.3086;;;;
44734;BME280;30462;52.446;-1.930;2023-01-28T04:28:18;101754.4727;;;;
44734;BME280;30462;52.446;-1.930;2023-01-28T04:29:18;101751.5508;;;;
44734;BME280;30462;52.446;-1.930;2023-01-28T04:30:18;101750.7383;;;;
44734;BME280;30462;52.446;-1.930;2023-01-28T04:31:18;101750.2461;;;;
44734;BME280;30462;52.446;-1.930;2023-01-28T04:32:18;101752;;;;
44734;BME280;30462;52.446;-1.930;2023-01-28T04:33:18;101747.5273;;;;
44734;BME280;30462;52.446;-1.930;2023-01-28T04:34:18;101751.1484;;;;
44734;BME280;30462;52.446;-1.930;2023-01-28T04:35:18;101756.918;;;;
44734;BME280;30462;52.446;-1.930;2023-01-28T04:36:17;101755.2109;;;;
44734;BME280;30462;52.446;-1.930;2023-01-28T04:37:17;101760.1289;;;;
44734;BME280;30462;52.446;-1.930;2023-01-28T04:38:18;101753.5078;;;;
44734;BME280;30462;52.446;-1.930;2023-01-28T04:39:17;101754.2344;;;;
44734;BME280;30462;52.446;-1.930;2023-01-28T04:40:18;101758.707;;;;
44734;BME280;30462;52.446;-1.930;2023-01-28T04:41:18;101760.7422;;;;
44734;BME280;30462;52.446;-1.930;2023-01-28T04:42:17;101761.4336;;;;
44734;BME280;30462;52.446;-1.930;2023-01-28T04:43:17;101759.9297;;;;
44734;BME280;30462;52.446;-1.930;2023-01-28T04:44:18;101760.9023;;;;
44734;BME280;30462;52.446;-1.930;2023-01-28T04:45:18;101760.0508;;;;
44734;BME280;30462;52.446;-1.930;2023-01-28T04:46:17;101761.4727;;;;
44734;BME280;30462;52.446;-1.930;2023-01-28T04:47:18;101757.2031;;;;
44734;BME280;30462;52.446;-1.930;2023-01-28T04:48:17;101754.5938;;;;
44734;BME280;30462;52.446;-1.930;2023-01-28T04:49:18;101757.2344;;;;
44734;BME280;30462;52.446;-1.930;2023-01-28T04:50:17;101759.6289;;;;
44734;BME280;30462;52.446;-1.930;2023-01-28T04:51:18;101761.7891;;;;
44734;BME280;30462;52.446;-1.930;2023-01-28T04:52:18;101761.9883;;;;
44734;BME280;30462;52.446;-1.930;2023-01-28T04:53:18;101765.8516;;;;
44734;BME280;30462;52.446;-1.930;2023-01-28T04:54:18;101765.9766;;;;
44734;BME280;30462;52.446;-1.930;2023-01-28T04:55:18;101765.5703;;;;
44734;BME280;30462;52.446;-1.930;2023-01-28T04:56:18;101766.3047;;;;
44734;BME280;30462;52.446;-1.930;2023-01-28T04:57:17;101761.3828;;;;
44734;BME280;30462;52.446;-1.930;2023-01-28T04:58:17;101759.5938;;;;
44734;BME280;30462;52.446;-1.930;2023-01-28T04:59:18;101755.2344;;;;
44734;BME280;30462;52.446;-1.930;2023-01-28T05:00:18;101753.3633;;;;
44734;BME280;30462;52.446;-1.930;2023-01-28T05:01:18;101752.4297;;;;
44734;BME280;30462;52.446;-1.930;2023-01-28T05:02:18;101754.5039;;;;
44734;BME280;30462;52.446;-1.930;2023-01-28T05:03:18;101759.5781;;;;
44734;BME280;30462;52.446;-1.930;2023-01-28T05:04:18;101757.8203;;;;
44734;BME280;30462;52.446;-1.930;2023-01-28T05:05:18;101758.0273;;;;
44734;BME280;30462;52.446;-1.930;2023-01-28T05:06:18;101759.3281;;;;
44734;BME280;30462;52.446;-1.930;2023-01-28T05:07:18;101761.7266;;;;
44734;BME280;30462;52.446;-1.930;2023-01-28T05:08:18;101764.2422;;;;
44734;BME280;30462;52.446;-1.930;2023-01-28T05:09:18;101767.043;;;;
44734;BME280;30462;52.446;-1.930;2023-01-28T05:10:18;101767.3242;;;;
44734;BME280;30462;52.446;-1.930;2023-01-28T05:11:18;101763.3047;;;;
44734;BME280;30462;52.446;-1.930;2023-01-28T05:12:17;101763.1016;;;;
44734;BME280;30462;52.446;-1.930;2023-01-28T05:13:18;101762.1211;;;;
44734;BME280;30462;52.446;-1.930;2023-01-28T05:14:18;101762.8906;;;;
44734;BME280;30462;52.446;-1.930;2023-01-28T05:15:18;101760.6914;;;;
44734;BME280;30462;52.446;-1.930;2023-01-28T05:16:17;101756.3828;;;;
44734;BME280;30462;52.446;-1.930;2023-01-28T05:17:18;101755.0039;;;;
44734;BME280;30462;52.446;-1.930;2023-01-28T05:18:18;101757.8477;;;;
44734;BME280;30462;52.446;-1.930;2023-01-28T05:19:18;101758.1367;;;;
44734;BME280;30462;52.446;-1.930;2023-01-28T05:20:18;101760.4531;;;;
44734;BME280;30462;52.446;-1.930;2023-01-28T05:21:18;101756.3945;;;;
44734;BME280;30462;52.446;-1.930;2023-01-28T05:22:18;101755.332;;;;
44734;BME280;30462;52.446;-1.930;2023-01-28T05:23:18;101752.8945;;;;
44734;BME280;30462;52.446;-1.930;2023-01-28T05:24:18;101748.1758;;;;
44734;BME280;30462;52.446;-1.930;2023-01-28T05:25:18;101751.0547;;;;
44734;BME280;30462;52.446;-1.930;2023-01-28T05:26:18;101750.207;;;;
44734;BME280;30462;52.446;-1.930;2023-01-28T05:27:18;101751.1445;;;;
44734;BME280;30462;52.446;-1.930;2023-01-28T05:28:18;101754.6016;;;;
44734;BME280;30462;52.446;-1.930;2023-01-28T05:29:18;101760.4805;;;;
44734;BME280;30462;52.446;-1.930;2023-01-28T05:30:18;101760;;;;
44734;BME280;30462;52.446;-1.930;2023-01-28T05:31:18;101757.4023;;;;
44734;BME280;30462;52.446;-1.930;2023-01-28T05:32:18;101755.9414;;;;
44734;BME280;30462;52.446;-1.930;2023-01-28T05:33:18;101752.4883;;;;
44734;BME280;30462;52.446;-1.930;2023-01-28T05:34:18;101752.082;;;;
44734;BME280;30462;52.446;-1.930;2023-01-28T05:35:18;101755.332;;;;
44734;BME280;30462;52.446;-1.930;2023-01-28T05:36:18;101755.25;;;;
44734;BME280;30462;52.446;-1.930;2023-01-28T05:37:18;101757.9766;;;;
44734;BME280;30462;52.446;-1.930;2023-01-28T05:38:18;101760.8203;;;;
44734;BME280;30462;52.446;-1.930;2023-01-28T05:39:18;101760.0508;;;;
44734;BME280;30462;52.446;-1.930;2023-01-28T05:40:18;101765.1797;;;;
44734;BME280;30462;52.446;-1.930;2023-01-28T05:41:18;101769.3672;;;;
44734;BME280;30462;52.446;-1.930;2023-01-28T05:42:18;101770.2617;;;;
44734;BME280;30462;52.446;-1.930;2023-01-28T05:43:18;101772.0508;;;;
44734;BME280;30462;52.446;-1.930;2023-01-28T05:44:18;101771.9258;;;;
44734;BME280;30462;52.446;-1.930;2023-01-28T05:45:18;101768.0313;;;;
44734;BME280;30462;52.446;-1.930;2023-01-28T05:46:18;101770.2656;;;;
44734;BME280;30462;52.446;-1.930;2023-01-28T05:47:18;101770.4727;;;;
44734;BME280;30462;52.446;-1.930;2023-01-28T05:48:18;101771.4453;;;;
44734;BME280;30462;52.446;-1.930;2023-01-28T05:49:18;101772.668;;;;
44734;BME280;30462;52.446;-1.930;2023-01-28T05:50:18;101770.4766;;;;
44734;BME280;30462;52.446;-1.930;2023-01-28T05:51:18;101774.543;;;;
44734;BME280;30462;52.446;-1.930;2023-01-28T05:52:17;101773.6055;;;;
44734;BME280;30462;52.446;-1.930;2023-01-28T05:53:18;101769.582;;;;